createdAt,value
2017-12-03T00:12:11.569Z,9.40
2017-12-03T00:14:38.203Z,9.40
2017-12-03T00:17:04.874Z,9.40
2017-12-03T00:19:31.523Z,9.30
2017-12-03T00:21:59.593Z,9.30
2017-12-03T00:24:26.326Z,9.40
2017-12-03T00:42:45.583Z,9.30
2017-12-03T00:45:12.240Z,9.20
2017-12-03T00:47:38.868Z,9.30
2017-12-03T00:50:05.533Z,9.30
2017-12-03T00:52:32.227Z,9.20
2017-12-03T00:54:58.869Z,9.20
2017-12-03T01:15:58.878Z,9.10
2017-12-03T01:26:23.129Z,9.10
2017-12-03T01:28:49.790Z,9.10
2017-12-03T01:31:16.467Z,9.10
2017-12-03T01:33:43.100Z,9.10
2017-12-03T01:36:09.767Z,9.10
2017-12-03T01:38:36.403Z,9.10
2017-12-03T01:41:03.144Z,9.10
2017-12-03T01:43:29.789Z,9.10
2017-12-03T01:45:56.449Z,9.10
2017-12-03T01:48:23.073Z,9.10
2017-12-03T01:50:49.703Z,9.10
2017-12-03T01:53:17.722Z,9.10
2017-12-03T01:55:44.369Z,9.10
2017-12-03T01:58:11.064Z,9.10
2017-12-03T02:00:37.708Z,9.10
2017-12-03T02:03:04.358Z,9.10
2017-12-03T02:08:10.265Z,9.00
2017-12-03T02:10:36.987Z,9.00
2017-12-03T02:13:05.661Z,9.10
2017-12-03T02:15:32.306Z,9.10
2017-12-03T02:17:58.988Z,9.00
2017-12-03T02:20:25.654Z,9.00
2017-12-03T02:22:52.289Z,9.00
2017-12-03T02:25:19.017Z,9.00
2017-12-03T02:56:53.397Z,8.90
2017-12-03T02:59:20.131Z,8.90
2017-12-03T03:01:46.846Z,8.90
2017-12-03T03:04:13.510Z,8.90
2017-12-03T03:06:40.214Z,8.90
2017-12-03T03:09:06.879Z,8.90
2017-12-03T03:11:33.604Z,8.90
2017-12-03T03:14:00.298Z,8.80
2017-12-03T03:16:26.979Z,8.90
2017-12-03T03:18:53.620Z,8.90
2017-12-03T03:21:20.263Z,8.90
2017-12-03T03:23:46.899Z,8.90
2017-12-03T03:26:13.589Z,8.80
2017-12-03T03:41:54.827Z,8.80
2017-12-03T03:44:21.461Z,8.80
2017-12-03T03:46:48.539Z,8.80
2017-12-03T03:51:53.734Z,8.80
2017-12-03T03:54:20.374Z,8.80
2017-12-03T03:56:47.023Z,8.80
2017-12-03T04:15:05.740Z,8.80
2017-12-03T04:17:32.395Z,8.70
2017-12-03T04:19:59.085Z,8.70
2017-12-03T04:22:25.735Z,8.70
2017-12-03T04:24:52.387Z,8.70
2017-12-03T04:56:27.576Z,8.70
2017-12-03T05:17:26.558Z,8.60
2017-12-03T05:27:51.119Z,8.50
2017-12-03T05:30:17.763Z,8.50
2017-12-03T05:32:44.884Z,8.50
2017-12-03T05:35:11.576Z,8.50
2017-12-03T05:56:11.990Z,8.50
2017-12-03T06:14:31.326Z,8.50
2017-12-03T06:16:57.963Z,8.40
2017-12-03T06:19:24.592Z,8.50
2017-12-03T06:21:51.236Z,8.50
2017-12-03T06:24:17.970Z,8.50
2017-12-03T06:26:44.595Z,8.50
2017-12-03T06:29:11.255Z,8.50
2017-12-03T06:31:41.697Z,8.50
2017-12-03T06:34:08.315Z,8.50
2017-12-03T06:36:34.954Z,8.50
2017-12-03T06:39:05.784Z,8.50
2017-12-03T06:41:32.512Z,8.50
2017-12-03T07:02:32.749Z,8.50
2017-12-03T07:28:50.093Z,8.30
2017-12-03T07:31:16.740Z,8.40
2017-12-03T07:33:43.393Z,8.40
2017-12-03T07:36:10.066Z,8.30
2017-12-03T07:38:36.814Z,8.30
2017-12-03T07:41:03.483Z,8.40
2017-12-03T07:43:30.159Z,8.30
2017-12-03T07:45:56.797Z,8.30
2017-12-03T07:48:23.485Z,8.30
2017-12-03T07:50:50.117Z,8.30
2017-12-03T07:53:16.770Z,8.30
2017-12-03T07:55:43.435Z,8.30
2017-12-03T07:58:10.087Z,8.20
2017-12-03T08:16:29.618Z,8.30
2017-12-03T08:18:56.298Z,8.30
2017-12-03T08:21:22.936Z,8.30
2017-12-03T08:23:49.993Z,8.30
2017-12-03T08:26:17.790Z,8.30
2017-12-03T08:28:44.464Z,8.30
2017-12-03T08:31:11.188Z,8.30
2017-12-03T08:33:37.865Z,8.30
2017-12-03T08:36:04.520Z,8.30
2017-12-03T08:38:31.169Z,8.30
2017-12-03T08:40:59.806Z,8.30
2017-12-03T08:43:26.460Z,8.30
2017-12-03T08:45:53.142Z,8.30
2017-12-03T08:48:19.847Z,8.30
2017-12-03T08:50:46.559Z,8.30
2017-12-03T08:53:13.634Z,8.30
2017-12-03T08:55:40.289Z,8.30
2017-12-03T09:16:39.199Z,8.30
2017-12-03T09:19:05.857Z,8.30
2017-12-03T09:21:32.507Z,8.30
2017-12-03T09:23:59.190Z,8.40
2017-12-03T09:26:25.892Z,8.50
2017-12-03T09:28:52.560Z,8.60
2017-12-03T09:31:19.208Z,8.70
2017-12-03T09:33:46.625Z,8.90
2017-12-03T09:36:13.280Z,9.00
2017-12-03T09:38:39.923Z,9.20
2017-12-03T09:41:06.579Z,9.30
2017-12-03T09:43:33.323Z,9.30
2017-12-03T09:45:59.965Z,9.40
2017-12-03T09:51:11.429Z,9.60
2017-12-03T09:53:38.154Z,9.70
2017-12-03T09:56:04.827Z,9.80
2017-12-03T09:58:31.476Z,9.90
2017-12-03T10:19:28.509Z,10.40
2017-12-03T10:21:55.157Z,10.30
2017-12-03T10:24:21.815Z,10.50
2017-12-03T10:26:48.503Z,10.60
2017-12-03T10:29:15.165Z,10.60
2017-12-03T10:47:42.182Z,11.00
2017-12-03T10:50:08.887Z,11.00
2017-12-03T10:52:35.627Z,11.10
2017-12-03T10:55:02.305Z,11.20
2017-12-03T10:57:28.939Z,11.30
2017-12-03T10:59:55.578Z,11.30
2017-12-03T11:36:47.355Z,11.60
2017-12-03T12:03:17.616Z,12.00
2017-12-03T12:08:23.472Z,12.10
2017-12-03T12:10:50.130Z,12.10
2017-12-03T12:13:16.779Z,12.20
2017-12-03T12:15:43.466Z,12.20
2017-12-03T12:18:10.157Z,12.20
2017-12-03T12:20:36.847Z,12.20
2017-12-03T12:23:03.511Z,12.20
2017-12-03T12:25:30.177Z,12.20
2017-12-03T12:27:56.850Z,12.10
2017-12-03T12:30:23.529Z,12.20
2017-12-03T12:48:45.891Z,12.50
2017-12-03T12:51:12.558Z,12.50
2017-12-03T12:53:39.308Z,12.60
2017-12-03T12:56:06.040Z,12.50
2017-12-03T12:58:33.106Z,12.40
2017-12-03T13:00:59.927Z,12.40
2017-12-03T13:03:26.610Z,12.50
2017-12-03T13:05:53.266Z,12.60
2017-12-03T13:08:19.985Z,12.60
2017-12-03T13:10:46.710Z,12.50
2017-12-03T13:13:13.380Z,12.50
2017-12-03T13:15:40.063Z,12.50
2017-12-03T13:18:06.731Z,12.60
2017-12-03T13:23:12.498Z,12.60
2017-12-03T13:25:47.490Z,12.80
2017-12-03T13:28:14.200Z,12.80
2017-12-03T13:30:40.874Z,12.70
2017-12-03T13:59:38.280Z,13.00
2017-12-03T14:04:43.871Z,13.00
2017-12-03T14:07:10.539Z,13.10
2017-12-03T14:09:37.213Z,12.90
2017-12-03T14:12:03.908Z,13.00
2017-12-03T14:14:30.591Z,13.00
2017-12-03T14:16:57.242Z,13.00
2017-12-03T14:37:56.818Z,13.10
2017-12-03T14:58:54.525Z,13.10
2017-12-03T15:19:55.738Z,13.50
2017-12-03T15:22:22.377Z,13.30
2017-12-03T15:24:54.043Z,13.30
2017-12-03T15:27:20.730Z,13.30
2017-12-03T15:29:47.418Z,13.30
2017-12-03T15:32:14.122Z,13.30
2017-12-03T15:34:40.833Z,13.40
2017-12-03T15:39:46.740Z,13.40
2017-12-03T15:42:13.407Z,13.50
2017-12-03T15:44:40.080Z,13.50
2017-12-03T15:47:06.743Z,13.40
2017-12-03T16:08:06.055Z,13.70
2017-12-03T16:21:17.799Z,13.60
2017-12-03T16:23:44.469Z,13.60
2017-12-03T16:26:11.153Z,13.50
2017-12-03T16:28:37.874Z,13.50
2017-12-03T16:31:04.559Z,13.60
2017-12-03T16:33:31.292Z,13.80
2017-12-03T16:35:58.139Z,13.90
2017-12-03T16:38:24.884Z,13.70
2017-12-03T16:40:51.522Z,13.70
2017-12-03T16:43:18.169Z,13.80
2017-12-03T16:45:53.716Z,13.80
2017-12-03T16:48:20.357Z,13.80
2017-12-03T16:50:48.014Z,13.80
2017-12-03T16:53:14.728Z,13.80
2017-12-03T16:55:41.379Z,13.70
2017-12-03T16:58:08.069Z,13.60
2017-12-03T17:00:34.717Z,13.60
2017-12-03T17:03:01.409Z,13.70
2017-12-03T17:21:22.592Z,13.60
2017-12-03T17:23:49.286Z,13.70
2017-12-03T17:26:16.003Z,13.70
2017-12-03T17:28:42.669Z,13.70
2017-12-03T17:31:17.689Z,13.90
2017-12-03T17:36:23.184Z,13.80
2017-12-03T17:38:49.841Z,13.80
2017-12-03T17:41:16.696Z,13.80
2017-12-03T17:43:45.004Z,13.80
2017-12-03T17:48:50.666Z,13.90
2017-12-03T18:07:12.731Z,14.00
2017-12-03T18:09:45.069Z,13.90
2017-12-03T18:12:11.779Z,13.90
2017-12-03T18:14:38.481Z,13.90
2017-12-03T18:17:05.204Z,13.90
2017-12-03T18:19:33.026Z,14.00
2017-12-03T18:21:59.740Z,14.00
2017-12-03T18:24:26.480Z,14.10
2017-12-03T18:29:32.666Z,13.70
2017-12-03T18:39:55.531Z,13.30
2017-12-03T18:42:24.204Z,13.20
2017-12-03T18:47:36.076Z,13.00
2017-12-03T18:50:11.766Z,13.10
2017-12-03T18:52:38.597Z,13.00
2017-12-03T18:55:06.268Z,13.00
2017-12-03T19:08:07.574Z,12.70
2017-12-03T19:10:34.277Z,12.70
2017-12-03T19:13:01.012Z,12.70
2017-12-03T19:18:17.812Z,12.60
2017-12-03T19:23:24.259Z,12.50
2017-12-03T19:25:51.108Z,12.50
2017-12-03T19:28:18.021Z,12.40
2017-12-03T19:30:45.171Z,12.40
2017-12-03T19:33:11.822Z,12.40
2017-12-03T19:35:38.542Z,12.40
2017-12-03T19:40:53.878Z,12.30
2017-12-03T19:43:20.697Z,12.20
2017-12-03T19:45:47.512Z,12.20
2017-12-03T19:48:14.149Z,12.20
2017-12-03T19:50:40.867Z,12.20
2017-12-03T19:53:07.669Z,12.20
2017-12-03T19:55:34.449Z,12.10
2017-12-03T19:58:01.156Z,12.10
2017-12-03T20:03:12.209Z,12.00
2017-12-03T20:08:18.003Z,12.00
2017-12-03T20:10:48.250Z,11.90
2017-12-03T20:13:14.908Z,11.90
2017-12-03T20:15:48.126Z,11.90
2017-12-03T20:26:11.334Z,11.80
2017-12-03T20:28:37.979Z,11.70
2017-12-03T20:31:04.821Z,11.70
2017-12-03T20:33:41.835Z,11.70
2017-12-03T20:36:17.714Z,11.70
2017-12-03T20:38:44.400Z,11.70
2017-12-03T20:41:11.166Z,11.70
2017-12-03T20:46:16.839Z,11.60
2017-12-03T20:48:53.821Z,11.60
2017-12-03T20:53:59.171Z,11.60
2017-12-03T20:56:25.838Z,11.60
2017-12-03T21:06:48.008Z,11.40
2017-12-03T21:09:14.682Z,11.40
2017-12-03T21:11:41.332Z,11.40
2017-12-03T21:14:08.003Z,11.40
2017-12-03T21:16:41.698Z,11.30
2017-12-03T21:29:42.219Z,11.20
2017-12-03T21:32:08.890Z,11.20
2017-12-03T21:34:35.733Z,11.20
2017-12-03T21:42:24.319Z,11.10
2017-12-03T21:44:50.963Z,11.10
2017-12-03T21:47:17.626Z,11.10
2017-12-03T21:49:44.374Z,11.10
2017-12-03T21:52:12.240Z,11.10
2017-12-03T21:54:38.888Z,11.00
2017-12-03T21:57:05.553Z,11.00
2017-12-03T21:59:32.199Z,11.00
2017-12-03T22:01:58.871Z,11.00
2017-12-03T22:04:25.649Z,11.00
2017-12-03T22:09:31.843Z,10.90
2017-12-03T22:14:31.669Z,10.90
2017-12-03T22:16:58.339Z,10.90
2017-12-03T22:19:24.983Z,10.90
2017-12-03T22:21:59.735Z,10.90
2017-12-03T22:24:26.613Z,10.80
2017-12-03T22:26:53.511Z,10.80
2017-12-03T22:29:20.264Z,10.80
2017-12-03T22:42:24.031Z,10.80
2017-12-03T22:44:50.704Z,10.70
2017-12-03T22:55:15.107Z,10.70
2017-12-03T22:57:42.158Z,10.60
2017-12-03T23:02:48.198Z,10.60
2017-12-03T23:05:14.840Z,10.60
2017-12-03T23:07:47.744Z,10.60
2017-12-03T23:12:54.439Z,10.50
2017-12-03T23:20:47.840Z,10.50
2017-12-03T23:23:14.508Z,10.50
2017-12-03T23:28:20.458Z,10.50
2017-12-03T23:30:59.777Z,10.50
2017-12-03T23:33:26.472Z,10.50
2017-12-03T23:35:53.125Z,10.50
2017-12-03T23:43:47.782Z,10.40
2017-12-03T23:46:18.324Z,10.40
2017-12-03T23:48:48.294Z,10.40
2017-12-03T23:51:15.104Z,10.40
